createdAt,value
2022-09-01T00:00:38.199Z,15.00
2022-09-01T00:02:39.858Z,15.00
2022-09-01T00:04:43.400Z,15.00
2022-09-01T00:06:46.527Z,15.00
2022-09-01T00:08:55.317Z,14.90
2022-09-01T00:10:57.001Z,15.00
2022-09-01T00:12:58.698Z,15.00
2022-09-01T00:15:00.583Z,14.90
2022-09-01T00:17:04.739Z,14.90
2022-09-01T00:19:06.833Z,14.80
2022-09-01T00:21:09.035Z,14.80
2022-09-01T00:23:10.698Z,14.80
2022-09-01T00:25:12.403Z,14.70
2022-09-01T00:27:14.036Z,14.80
2022-09-01T00:29:16.152Z,14.70
2022-09-01T00:31:19.881Z,14.60
2022-09-01T00:33:21.556Z,14.60
2022-09-01T00:35:23.265Z,14.60
2022-09-01T00:37:24.939Z,14.60
2022-09-01T00:39:26.670Z,14.60
2022-09-01T00:41:30.488Z,14.50
2022-09-01T00:43:47.019Z,14.60
2022-09-01T00:45:51.663Z,14.60
2022-09-01T00:47:53.736Z,14.60
2022-09-01T00:49:55.457Z,14.60
2022-09-01T00:52:00.211Z,14.60
2022-09-01T00:54:02.965Z,14.60
2022-09-01T00:56:05.090Z,14.60
2022-09-01T00:58:07.633Z,14.60
2022-09-01T01:00:26.533Z,14.60
2022-09-01T01:02:28.365Z,14.60
2022-09-01T01:04:31.394Z,14.50
2022-09-01T01:06:33.237Z,14.60
2022-09-01T01:08:36.810Z,14.50
2022-09-01T01:10:41.563Z,14.60
2022-09-01T01:12:43.903Z,14.50
2022-09-01T01:14:50.350Z,14.50
2022-09-01T01:16:53.693Z,14.40
2022-09-01T01:18:55.595Z,14.50
2022-09-01T01:21:23.748Z,14.40
2022-09-01T01:23:39.583Z,14.40
2022-09-01T01:25:53.261Z,14.40
2022-09-01T01:28:08.996Z,14.40
2022-09-01T01:30:12.007Z,14.50
2022-09-01T01:32:13.646Z,14.50
2022-09-01T01:34:16.360Z,14.50
2022-09-01T01:36:18.009Z,14.50
2022-09-01T01:38:22.772Z,14.50
2022-09-01T01:40:25.979Z,14.40
2022-09-01T01:42:28.360Z,14.50
2022-09-01T01:44:29.991Z,14.50
2022-09-01T01:46:32.652Z,14.40
2022-09-01T01:48:37.220Z,14.40
2022-09-01T01:50:38.931Z,14.40
2022-09-01T01:52:41.885Z,14.40
2022-09-01T01:54:47.422Z,14.40
2022-09-01T01:56:49.152Z,14.40
2022-09-01T01:58:56.175Z,14.40
2022-09-01T02:00:58.939Z,14.40
2022-09-01T02:03:01.121Z,14.40
2022-09-01T02:05:02.806Z,14.40
2022-09-01T02:07:17.013Z,14.40
2022-09-01T02:09:30.115Z,14.40
2022-09-01T02:11:39.264Z,14.40
2022-09-01T02:13:48.883Z,14.30
2022-09-01T02:16:09.204Z,14.40
2022-09-01T02:18:39.179Z,14.30
2022-09-01T02:20:42.051Z,14.30
2022-09-01T02:22:48.924Z,14.30
2022-09-01T02:25:00.960Z,14.30
2022-09-01T02:27:11.054Z,14.30
2022-09-01T02:29:26.623Z,14.20
2022-09-01T02:31:38.552Z,14.20
2022-09-01T02:33:57.690Z,14.20
2022-09-01T02:36:02.313Z,14.20
2022-09-01T02:38:19.180Z,14.20
2022-09-01T02:40:32.966Z,14.20
2022-09-01T02:43:08.297Z,14.20
2022-09-01T02:45:18.135Z,14.30
2022-09-01T02:47:25.636Z,14.20
2022-09-01T02:49:30.589Z,14.20
2022-09-01T02:51:40.910Z,14.10
2022-09-01T02:54:01.743Z,14.10
2022-09-01T02:56:25.348Z,14.20
2022-09-01T02:58:27.849Z,14.20
2022-09-01T03:00:39.378Z,14.20
2022-09-01T03:02:43.756Z,14.20
2022-09-01T03:04:45.864Z,14.20
2022-09-01T03:06:59.425Z,14.10
2022-09-01T03:09:13.459Z,14.10
2022-09-01T03:11:20.822Z,14.10
2022-09-01T03:13:38.764Z,14.00
2022-09-01T03:15:49.873Z,14.00
2022-09-01T03:17:52.173Z,14.00
2022-09-01T03:19:55.241Z,13.90
2022-09-01T03:22:02.813Z,13.90
2022-09-01T03:24:11.287Z,13.90
2022-09-01T03:26:17.221Z,13.90
2022-09-01T03:28:21.074Z,13.90
2022-09-01T03:30:34.204Z,13.90
2022-09-01T03:32:38.414Z,13.90
2022-09-01T03:34:44.133Z,13.90
2022-09-01T03:36:52.670Z,13.90
2022-09-01T03:39:05.015Z,13.90
2022-09-01T03:41:13.422Z,13.90
2022-09-01T03:43:35.298Z,13.90
2022-09-01T03:45:38.447Z,13.90
2022-09-01T03:47:45.418Z,13.90
2022-09-01T03:49:54.835Z,13.90
2022-09-01T03:52:01.057Z,13.80
2022-09-01T03:54:14.774Z,13.90
2022-09-01T03:56:27.286Z,13.80
2022-09-01T03:58:35.373Z,13.80
2022-09-01T04:01:08.193Z,13.80
2022-09-01T04:03:31.204Z,13.80
2022-09-01T04:05:46.676Z,13.90
2022-09-01T04:07:50.666Z,13.90
2022-09-01T04:10:18.081Z,13.80
2022-09-01T04:12:22.924Z,13.80
2022-09-01T04:14:58.834Z,13.80
2022-09-01T04:17:19.738Z,13.70
2022-09-01T04:19:30.356Z,13.70
2022-09-01T04:21:36.613Z,13.70
2022-09-01T04:23:41.210Z,13.70
2022-09-01T04:25:47.431Z,13.70
2022-09-01T04:28:07.898Z,13.70
2022-09-01T04:30:10.884Z,13.70
2022-09-01T04:32:16.142Z,13.70
2022-09-01T04:34:27.361Z,13.70
2022-09-01T04:36:34.043Z,13.80
2022-09-01T04:38:49.301Z,13.90
2022-09-01T04:41:03.344Z,14.00
2022-09-01T04:43:13.496Z,14.00
2022-09-01T04:45:29.985Z,14.00
2022-09-01T04:47:44.476Z,14.10
2022-09-01T04:49:51.988Z,14.10
2022-09-01T04:52:04.440Z,14.20
2022-09-01T04:54:23.093Z,14.20
2022-09-01T04:59:20.004Z,14.30
2022-09-01T05:01:34.563Z,14.30
2022-09-01T05:03:38.108Z,14.40
2022-09-01T05:07:58.672Z,14.50
2022-09-01T05:10:08.418Z,14.50
2022-09-01T05:12:16.181Z,14.50
2022-09-01T05:14:24.890Z,14.60
2022-09-01T05:16:40.665Z,14.60
2022-09-01T05:18:55.788Z,14.60
2022-09-01T05:21:26.895Z,14.60
2022-09-01T05:23:35.020Z,14.60
2022-09-01T05:25:58.486Z,14.60
2022-09-01T05:28:15.939Z,14.70
2022-09-01T05:30:41.541Z,14.60
2022-09-01T05:32:43.835Z,14.60
2022-09-01T05:34:46.465Z,14.70
2022-09-01T05:36:54.588Z,14.80
2022-09-01T05:39:14.827Z,14.90
2022-09-01T05:41:17.592Z,14.90
2022-09-01T05:43:25.127Z,15.00
2022-09-01T05:45:56.507Z,15.10
2022-09-01T05:48:17.886Z,15.00
2022-09-01T05:50:34.069Z,15.10
2022-09-01T05:52:54.292Z,15.20
2022-09-01T05:55:13.173Z,15.40
2022-09-01T05:57:41.200Z,15.40
2022-09-01T06:02:06.172Z,15.40
2022-09-01T06:04:10.530Z,15.40
2022-09-01T06:06:19.564Z,15.40
2022-09-01T06:08:33.399Z,15.50
2022-09-01T06:10:56.414Z,15.60
2022-09-01T06:13:11.539Z,15.50
2022-09-01T06:15:16.494Z,15.50
2022-09-01T06:17:25.545Z,15.60
2022-09-01T06:19:27.513Z,15.70
2022-09-01T06:21:32.003Z,15.70
2022-09-01T06:23:40.459Z,15.80
2022-09-01T06:26:08.658Z,15.90
2022-09-01T06:28:36.252Z,16.00
2022-09-01T06:30:47.129Z,16.10
2022-09-01T06:32:51.491Z,16.20
2022-09-01T06:35:05.219Z,16.30
2022-09-01T06:37:20.709Z,16.20
2022-09-01T06:39:33.634Z,16.20
2022-09-01T06:41:38.025Z,16.20
2022-09-01T06:43:41.929Z,16.30
2022-09-01T06:45:46.881Z,16.40
2022-09-01T06:47:51.170Z,16.40
2022-09-01T06:49:59.501Z,16.40
2022-09-01T06:52:02.872Z,16.50
2022-09-01T06:54:09.502Z,16.60
2022-09-01T06:56:13.707Z,16.70
2022-09-01T06:58:15.733Z,16.70
2022-09-01T07:00:19.147Z,16.70
2022-09-01T07:02:26.522Z,16.70
2022-09-01T07:04:43.998Z,16.60
2022-09-01T07:07:53.346Z,16.60
2022-09-01T07:09:48.090Z,16.60
2022-09-01T07:14:17.456Z,16.70
2022-09-01T07:16:32.859Z,16.70
2022-09-01T07:18:37.089Z,16.70
2022-09-01T07:21:02.847Z,16.80
2022-09-01T07:23:07.781Z,16.80
2022-09-01T07:25:13.416Z,16.90
2022-09-01T07:27:19.234Z,16.90
2022-09-01T07:29:28.707Z,17.00
2022-09-01T07:38:48.436Z,17.30
2022-09-01T07:44:31.912Z,17.60
2022-09-01T07:46:46.361Z,17.70
2022-09-01T07:51:48.711Z,17.80
2022-09-01T07:54:16.321Z,17.90
2022-09-01T07:56:44.799Z,17.80
2022-09-01T07:58:55.054Z,17.90
2022-09-01T08:01:20.711Z,18.00
2022-09-01T08:03:26.782Z,18.00
2022-09-01T08:05:44.665Z,18.00
2022-09-01T08:08:18.298Z,18.00
2022-09-01T08:10:49.102Z,18.00
2022-09-01T08:13:02.085Z,18.10
2022-09-01T08:19:03.896Z,18.20
2022-09-01T08:21:30.870Z,18.40
2022-09-01T08:23:43.242Z,18.50
2022-09-01T08:25:48.760Z,18.60
2022-09-01T08:27:59.798Z,18.50
2022-09-01T08:30:20.531Z,18.60
2022-09-01T08:32:22.499Z,18.70
2022-09-01T08:35:07.621Z,18.70
2022-09-01T08:37:15.868Z,18.90
2022-09-01T08:39:31.812Z,19.10
2022-09-01T08:42:20.367Z,19.30
2022-09-01T08:44:31.464Z,19.20
2022-09-01T08:46:37.997Z,19.30
2022-09-01T08:51:33.161Z,19.40
2022-09-01T08:53:42.858Z,19.50
2022-09-01T08:55:55.402Z,19.50
2022-09-01T08:58:00.795Z,19.50
2022-09-01T09:00:04.015Z,19.50
2022-09-01T09:02:27.595Z,19.60
2022-09-01T09:04:49.194Z,19.80
2022-09-01T09:07:09.045Z,19.70
2022-09-01T09:09:16.059Z,19.90
2022-09-01T09:11:23.467Z,19.90
2022-09-01T09:13:44.153Z,19.90
2022-09-01T09:16:10.137Z,19.90
2022-09-01T09:18:39.354Z,19.90
2022-09-01T09:20:42.859Z,19.80
2022-09-01T09:22:52.267Z,19.90
2022-09-01T09:25:21.922Z,20.00
2022-09-01T09:27:30.423Z,20.10
2022-09-01T09:29:34.549Z,20.10
2022-09-01T09:31:46.177Z,20.10
2022-09-01T09:33:56.171Z,20.10
2022-09-01T09:36:25.466Z,20.30
2022-09-01T09:38:36.641Z,20.40
2022-09-01T09:41:09.421Z,20.50
2022-09-01T09:43:04.942Z,20.50
2022-09-01T09:45:26.154Z,20.60
2022-09-01T09:47:43.695Z,20.80
2022-09-01T09:49:49.760Z,20.80
2022-09-01T09:52:09.884Z,20.80
2022-09-01T09:54:15.945Z,20.70
2022-09-01T09:56:19.562Z,20.70
2022-09-01T09:58:26.465Z,20.80
2022-09-01T10:00:30.016Z,20.70
2022-09-01T10:02:31.822Z,20.80
2022-09-01T10:04:37.605Z,20.80
2022-09-01T10:06:41.932Z,20.60
2022-09-01T10:08:48.077Z,20.70
2022-09-01T10:10:57.565Z,20.80
2022-09-01T10:13:02.237Z,21.00
2022-09-01T10:15:12.745Z,21.00
2022-09-01T10:17:17.134Z,21.20
2022-09-01T10:19:20.097Z,21.00
2022-09-01T10:21:24.091Z,21.00
2022-09-01T10:23:30.869Z,21.10
2022-09-01T10:25:34.884Z,21.40
2022-09-01T10:27:38.394Z,21.70
2022-09-01T10:29:49.974Z,21.80
2022-09-01T10:32:14.796Z,21.70
2022-09-01T10:34:19.436Z,21.70
2022-09-01T10:36:24.500Z,21.90
2022-09-01T10:38:30.521Z,21.80
2022-09-01T10:40:33.513Z,21.90
2022-09-01T10:42:35.302Z,22.20
2022-09-01T10:44:38.976Z,22.30
2022-09-01T10:46:50.442Z,22.40
2022-09-01T10:49:02.765Z,22.30
2022-09-01T10:51:18.450Z,22.50
2022-09-01T10:53:35.339Z,22.50
2022-09-01T10:55:39.322Z,22.20
2022-09-01T10:57:47.071Z,22.10
2022-09-01T10:59:56.822Z,22.10
2022-09-01T11:02:26.978Z,22.20
2022-09-01T11:04:29.962Z,22.30
2022-09-01T11:06:34.104Z,22.50
2022-09-01T11:08:56.733Z,22.20
2022-09-01T11:11:03.099Z,22.20
2022-09-01T11:13:15.765Z,22.60
2022-09-01T11:15:17.596Z,23.30
2022-09-01T11:17:22.156Z,23.80
2022-09-01T11:19:39.035Z,23.60
2022-09-01T11:21:40.948Z,24.40
2022-09-01T11:23:43.210Z,26.00
2022-09-01T11:25:46.586Z,25.80
2022-09-01T11:27:48.715Z,25.40
2022-09-01T11:29:58.008Z,25.20
2022-09-01T11:32:00.608Z,25.20
2022-09-01T11:34:05.341Z,24.40
2022-09-01T11:36:13.483Z,24.50
2022-09-01T11:38:17.219Z,24.10
2022-09-01T11:40:31.297Z,23.50
2022-09-01T11:42:46.879Z,24.40
2022-09-01T11:44:51.254Z,25.00
2022-09-01T11:46:54.708Z,27.40
2022-09-01T11:48:57.696Z,29.10
2022-09-01T11:51:00.814Z,29.70
2022-09-01T11:53:05.748Z,31.00
2022-09-01T11:55:14.170Z,31.40
2022-09-01T11:57:21.316Z,31.00
2022-09-01T11:59:45.693Z,30.80
2022-09-01T12:02:01.959Z,30.80
2022-09-01T12:04:51.554Z,29.80
2022-09-01T12:07:14.478Z,29.20
2022-09-01T12:09:34.342Z,26.70
2022-09-01T12:11:53.856Z,25.50
2022-09-01T12:14:12.819Z,24.50
2022-09-01T12:16:37.814Z,23.80
2022-09-01T12:19:07.795Z,23.10
2022-09-01T12:21:25.578Z,23.10
2022-09-01T12:23:38.335Z,22.80
2022-09-01T12:25:54.139Z,22.70
2022-09-01T12:28:10.977Z,22.60
2022-09-01T12:30:32.474Z,22.70
2022-09-01T12:32:38.223Z,22.80
2022-09-01T12:34:52.994Z,22.80
2022-09-01T12:37:10.611Z,23.10
2022-09-01T12:40:03.197Z,23.30
2022-09-01T12:42:16.623Z,23.90
2022-09-01T12:44:31.702Z,24.50
2022-09-01T12:46:56.298Z,26.70
2022-09-01T12:49:30.829Z,28.60
2022-09-01T12:51:36.110Z,30.80
2022-09-01T12:53:44.370Z,30.50
2022-09-01T12:56:06.145Z,30.90
2022-09-01T13:01:16.974Z,31.30
2022-09-01T13:03:28.851Z,31.70
2022-09-01T13:07:55.822Z,31.80
2022-09-01T13:10:12.033Z,32.60
2022-09-01T13:12:35.724Z,31.60
2022-09-01T13:15:00.707Z,31.20
2022-09-01T13:17:15.224Z,30.70
2022-09-01T13:19:30.980Z,30.80
2022-09-01T13:21:46.653Z,30.20
2022-09-01T13:23:56.737Z,28.60
2022-09-01T13:26:18.368Z,28.20
2022-09-01T13:28:37.574Z,29.10
2022-09-01T13:31:27.907Z,28.80
2022-09-01T13:33:27.303Z,29.30
2022-09-01T13:35:46.581Z,28.60
2022-09-01T13:38:06.071Z,27.80
2022-09-01T13:40:17.818Z,27.00
2022-09-01T13:42:43.832Z,26.80
2022-09-01T13:44:54.087Z,27.40
2022-09-01T13:49:44.959Z,32.40
2022-09-01T13:52:13.924Z,33.20
2022-09-01T13:54:27.974Z,31.60
2022-09-01T13:56:33.106Z,29.10
2022-09-01T13:58:44.999Z,28.60
2022-09-01T14:00:54.817Z,31.00
2022-09-01T14:03:18.018Z,32.20
2022-09-01T14:06:03.591Z,33.60
2022-09-01T14:08:20.397Z,33.40
2022-09-01T14:11:16.067Z,33.20
2022-09-01T14:13:42.493Z,32.90
2022-09-01T14:15:44.827Z,32.00
2022-09-01T14:18:16.792Z,31.60
2022-09-01T14:21:11.297Z,31.60
2022-09-01T14:23:20.820Z,31.60
2022-09-01T14:28:13.731Z,31.50
2022-09-01T14:30:39.606Z,30.50
2022-09-01T14:33:52.867Z,30.20
2022-09-01T14:35:59.440Z,30.00
2022-09-01T14:38:42.714Z,29.70
2022-09-01T14:41:04.416Z,29.40
2022-09-01T14:43:10.931Z,29.10
2022-09-01T14:45:22.768Z,29.70
2022-09-01T14:47:34.370Z,30.70
2022-09-01T14:49:39.628Z,32.50
2022-09-01T14:52:12.516Z,33.50
2022-09-01T14:54:17.851Z,34.40
2022-09-01T14:56:35.819Z,34.90
2022-09-01T14:58:55.992Z,35.60
2022-09-01T15:01:23.415Z,34.80
2022-09-01T15:03:43.026Z,36.20
2022-09-01T15:05:53.763Z,35.70
2022-09-01T15:07:55.721Z,36.10
2022-09-01T15:09:59.712Z,37.00
2022-09-01T15:12:04.274Z,36.60
2022-09-01T15:14:18.884Z,36.20
2022-09-01T15:16:37.139Z,36.00
2022-09-01T15:19:11.199Z,36.20
2022-09-01T15:21:32.289Z,36.60
2022-09-01T15:23:42.568Z,36.30
2022-09-01T15:26:00.201Z,36.50
2022-09-01T15:28:11.425Z,36.90
2022-09-01T15:35:21.463Z,37.40
2022-09-01T15:37:32.068Z,37.10
2022-09-01T15:39:55.900Z,37.30
2022-09-01T15:41:59.598Z,36.90
2022-09-01T15:44:08.018Z,37.20
2022-09-01T15:46:10.123Z,37.70
2022-09-01T15:48:25.109Z,37.40
2022-09-01T15:50:27.889Z,36.90
2022-09-01T15:52:49.878Z,34.90
2022-09-01T15:55:03.085Z,35.80
2022-09-01T15:57:16.270Z,36.40
2022-09-01T15:59:29.305Z,35.80
2022-09-01T16:01:59.166Z,36.20
2022-09-01T16:04:05.958Z,37.10
2022-09-01T16:06:08.365Z,37.40
2022-09-01T16:08:11.530Z,37.00
2022-09-01T16:10:17.612Z,36.50
2022-09-01T16:12:22.707Z,36.00
2022-09-01T16:14:33.143Z,36.20
2022-09-01T16:16:51.878Z,35.90
2022-09-01T16:18:56.931Z,35.50
2022-09-01T16:21:09.055Z,34.90
2022-09-01T16:23:14.533Z,34.40
2022-09-01T16:25:23.661Z,34.00
2022-09-01T16:27:32.039Z,34.10
2022-09-01T16:29:41.005Z,34.00
2022-09-01T16:31:48.436Z,34.00
2022-09-01T16:33:51.579Z,33.20
2022-09-01T16:35:57.209Z,32.40
2022-09-01T16:38:16.685Z,32.20
2022-09-01T16:40:42.627Z,32.20
2022-09-01T16:43:05.116Z,32.30
2022-09-01T16:45:06.736Z,31.80
2022-09-01T16:47:25.448Z,30.80
2022-09-01T16:49:31.965Z,29.80
2022-09-01T16:51:33.731Z,28.60
2022-09-01T16:53:54.067Z,27.60
2022-09-01T16:56:19.675Z,26.30
2022-09-01T16:58:24.405Z,25.70
2022-09-01T17:00:32.786Z,25.10
2022-09-01T17:02:38.518Z,24.90
2022-09-01T17:04:42.084Z,24.70
2022-09-01T17:06:57.058Z,24.50
2022-09-01T17:09:04.272Z,24.20
2022-09-01T17:11:10.569Z,24.00
2022-09-01T17:13:25.938Z,23.80
2022-09-01T17:15:31.236Z,23.70
2022-09-01T17:17:37.785Z,23.50
2022-09-01T17:19:40.777Z,23.40
2022-09-01T17:21:52.913Z,23.30
2022-09-01T17:24:13.128Z,23.10
2022-09-01T17:26:17.227Z,23.10
2022-09-01T17:28:24.729Z,22.90
2022-09-01T17:30:26.508Z,22.80
2022-09-01T17:32:48.109Z,22.70
2022-09-01T17:34:51.769Z,22.60
2022-09-01T17:36:56.575Z,22.50
2022-09-01T17:39:01.325Z,22.40
2022-09-01T17:41:19.272Z,22.20
2022-09-01T17:43:33.682Z,22.00
2022-09-01T17:45:51.127Z,21.90
2022-09-01T17:47:55.694Z,21.90
2022-09-01T17:50:14.358Z,21.70
2022-09-01T17:52:16.291Z,21.50
2022-09-01T17:54:28.649Z,21.50
2022-09-01T17:56:38.190Z,21.30
2022-09-01T17:58:53.455Z,21.20
2022-09-01T18:00:58.248Z,21.10
2022-09-01T18:03:19.164Z,20.90
2022-09-01T18:05:24.595Z,20.90
2022-09-01T18:07:32.895Z,20.80
2022-09-01T18:09:40.098Z,20.80
2022-09-01T18:11:49.280Z,20.70
2022-09-01T18:13:57.128Z,20.60
2022-09-01T18:16:00.817Z,20.40
2022-09-01T18:18:02.667Z,20.30
2022-09-01T18:20:19.336Z,20.30
2022-09-01T18:22:22.675Z,20.20
2022-09-01T18:24:47.501Z,20.10
2022-09-01T18:26:50.397Z,20.00
2022-09-01T18:28:53.418Z,19.90
2022-09-01T18:31:10.594Z,19.90
2022-09-01T18:33:18.536Z,19.70
2022-09-01T18:35:27.467Z,19.60
2022-09-01T18:37:47.604Z,19.60
2022-09-01T18:39:58.101Z,19.60
2022-09-01T18:42:11.346Z,19.50
2022-09-01T18:44:13.169Z,19.50
2022-09-01T18:46:33.407Z,19.40
2022-09-01T18:50:47.080Z,19.30
2022-09-01T18:52:57.913Z,19.30
2022-09-01T18:55:04.892Z,19.20
2022-09-01T18:57:07.719Z,19.30
2022-09-01T18:59:18.652Z,19.20
2022-09-01T19:01:27.105Z,19.10
2022-09-01T19:03:41.491Z,19.00
2022-09-01T19:05:52.353Z,18.80
2022-09-01T19:08:03.754Z,18.70
2022-09-01T19:10:21.581Z,18.70
2022-09-01T19:12:33.438Z,18.70
2022-09-01T19:14:44.014Z,18.60
2022-09-01T19:17:08.836Z,18.50
2022-09-01T19:19:19.376Z,18.50
2022-09-01T19:21:22.674Z,18.50
2022-09-01T19:23:36.120Z,18.40
2022-09-01T19:25:40.367Z,18.30
2022-09-01T19:27:42.094Z,18.30
2022-09-01T19:29:56.004Z,18.20
2022-09-01T19:32:01.939Z,18.30
2022-09-01T19:34:08.298Z,18.30
2022-09-01T19:36:12.009Z,18.20
2022-09-01T19:38:17.992Z,18.20
2022-09-01T19:40:24.971Z,18.10
2022-09-01T19:42:30.509Z,18.00
2022-09-01T19:44:32.096Z,17.90
2022-09-01T19:46:41.643Z,17.90
2022-09-01T19:48:49.114Z,17.80
2022-09-01T19:50:55.091Z,17.80
2022-09-01T19:53:03.200Z,17.60
2022-09-01T19:55:12.180Z,17.50
2022-09-01T19:57:20.191Z,17.60
2022-09-01T19:59:47.953Z,17.50
2022-09-01T20:01:55.492Z,17.60
2022-09-01T20:03:58.990Z,17.60
2022-09-01T20:06:32.094Z,17.50
2022-09-01T20:08:45.823Z,17.50
2022-09-01T20:11:06.411Z,17.40
2022-09-01T20:13:20.217Z,17.40
2022-09-01T20:15:27.037Z,17.30
2022-09-01T20:17:48.288Z,17.30
2022-09-01T20:19:49.896Z,17.30
2022-09-01T20:21:51.506Z,17.30
2022-09-01T20:23:58.902Z,17.10
2022-09-01T20:26:04.015Z,17.20
2022-09-01T20:28:29.127Z,17.20
2022-09-01T20:30:40.925Z,17.10
2022-09-01T20:32:51.596Z,17.10
2022-09-01T20:35:00.155Z,17.10
2022-09-01T20:37:04.539Z,17.00
2022-09-01T20:39:45.991Z,17.00
2022-09-01T20:41:56.739Z,17.00
2022-09-01T20:43:59.031Z,16.90
2022-09-01T20:46:00.684Z,17.00
2022-09-01T20:48:06.926Z,16.90
2022-09-01T20:50:13.400Z,16.90
2022-09-01T20:52:36.302Z,16.90
2022-09-01T20:54:41.717Z,16.90
2022-09-01T20:56:46.504Z,16.80
2022-09-01T20:59:06.625Z,16.70
2022-09-01T21:01:26.961Z,16.60
2022-09-01T21:03:35.464Z,16.60
2022-09-01T21:05:55.375Z,16.70
2022-09-01T21:08:16.069Z,16.70
2022-09-01T21:10:26.301Z,16.60
2022-09-01T21:12:33.563Z,16.70
2022-09-01T21:14:35.373Z,16.70
2022-09-01T21:16:42.705Z,16.70
2022-09-01T21:18:57.905Z,16.60
2022-09-01T21:20:59.503Z,16.60
2022-09-01T21:23:01.344Z,16.60
2022-09-01T21:25:05.822Z,16.60
2022-09-01T21:27:21.005Z,16.60
2022-09-01T21:29:22.661Z,16.50
2022-09-01T21:31:24.676Z,16.50
2022-09-01T21:33:27.923Z,16.40
2022-09-01T21:35:29.575Z,16.40
2022-09-01T21:37:31.224Z,16.40
2022-09-01T21:39:33.095Z,16.40
2022-09-01T21:41:35.912Z,16.30
2022-09-01T21:43:41.196Z,16.30
2022-09-01T21:45:42.982Z,16.20
2022-09-01T21:47:45.267Z,16.20
2022-09-01T21:49:46.945Z,16.20
2022-09-01T21:51:48.800Z,16.20
2022-09-01T21:53:50.421Z,16.20
2022-09-01T21:55:52.132Z,16.20
2022-09-01T21:57:53.863Z,16.20
2022-09-01T21:59:55.514Z,16.20
2022-09-01T22:01:57.290Z,16.10
2022-09-01T22:03:59.280Z,16.10
2022-09-01T22:06:01.107Z,16.00
2022-09-01T22:08:03.279Z,16.00
2022-09-01T22:10:05.442Z,15.90
2022-09-01T22:12:07.497Z,15.90
2022-09-01T22:14:09.666Z,15.90
2022-09-01T22:16:16.802Z,16.00
2022-09-01T22:18:19.964Z,15.90
2022-09-01T22:20:22.335Z,15.90
2022-09-01T22:22:24.063Z,15.80
2022-09-01T22:24:25.703Z,15.80
2022-09-01T22:26:28.637Z,15.80
2022-09-01T22:28:30.647Z,15.70
2022-09-01T22:30:32.355Z,15.70
2022-09-01T22:32:36.102Z,15.70
2022-09-01T22:34:38.342Z,15.60
2022-09-01T22:36:44.220Z,15.60
2022-09-01T22:38:45.836Z,15.60
2022-09-01T22:40:49.251Z,15.60
2022-09-01T22:42:52.428Z,15.50
2022-09-01T22:44:54.244Z,15.60
2022-09-01T22:46:56.814Z,15.50
2022-09-01T22:48:59.018Z,15.40
2022-09-01T22:51:06.987Z,15.40
2022-09-01T22:53:09.347Z,15.50
2022-09-01T22:55:11.025Z,15.40
2022-09-01T22:57:12.876Z,15.50
2022-09-01T22:59:14.807Z,15.50
2022-09-01T23:01:19.030Z,15.50
2022-09-01T23:03:21.401Z,15.50
2022-09-01T23:05:23.721Z,15.40
2022-09-01T23:07:25.320Z,15.40
2022-09-01T23:09:26.924Z,15.40
2022-09-01T23:11:28.875Z,15.40
2022-09-01T23:13:30.546Z,15.30
2022-09-01T23:15:35.801Z,15.20
2022-09-01T23:17:38.279Z,15.20
2022-09-01T23:19:39.862Z,15.10
2022-09-01T23:21:41.449Z,15.20
2022-09-01T23:23:43.141Z,15.10
2022-09-01T23:25:44.791Z,15.20
2022-09-01T23:27:46.426Z,15.20
2022-09-01T23:29:48.068Z,15.10
2022-09-01T23:31:49.776Z,15.00
2022-09-01T23:33:51.880Z,15.00
2022-09-01T23:35:54.665Z,15.00
2022-09-01T23:37:57.718Z,14.90
2022-09-01T23:39:59.346Z,14.90
2022-09-01T23:42:01.004Z,14.90
2022-09-01T23:44:03.682Z,14.80
2022-09-01T23:46:06.077Z,14.90
2022-09-01T23:48:07.783Z,14.80
2022-09-01T23:50:09.617Z,14.80
2022-09-01T23:52:11.679Z,14.80
2022-09-01T23:54:13.468Z,14.80
2022-09-01T23:56:16.692Z,14.80
2022-09-01T23:58:19.196Z,14.90
